Time;durP1;ratioP1;P1;durP2;ratioP2;P2;SDS_P1;SDS_P2;PMS_P1;PMS_P2;Temp;Humidity;BMP_temperature;BMP_pressure;BME280_temperature;BME280_humidity;BME280_pressure;Samples;Min_cycle;Max_cycle;Signal;HPM_P1;HPM_P2
2022/03/23 00:01:44;;;;;;;15.60;5.63;;;26.60;99.90;;;;;;5092849;28;20864;-92
2022/03/23 00:04:11;;;;;;;16.75;5.10;;;26.80;99.90;;;;;;5093386;28;20368;-83
2022/03/23 00:06:38;;;;;;;12.97;4.80;;;26.70;99.90;;;;;;5094234;28;20369;-87
2022/03/23 00:09:05;;;;;;;11.57;4.63;;;26.80;99.90;;;;;;5090724;28;20392;-86
2022/03/23 00:11:33;;;;;;;12.57;5.22;;;27.20;99.90;;;;;;5088989;28;20414;-85
2022/03/23 00:14:00;;;;;;;13.35;4.97;;;27.30;99.90;;;;;;5091255;28;20373;-89
2022/03/23 00:16:27;;;;;;;12.57;4.90;;;27.60;99.90;;;;;;5091672;28;20384;-85
2022/03/23 00:18:54;;;;;;;9.38;4.10;;;28.00;99.80;;;;;;5091128;28;20388;-89
2022/03/23 00:21:22;;;;;;;12.85;4.63;;;27.90;99.50;;;;;;5092592;28;20376;-90
2022/03/23 00:23:49;;;;;;;15.10;4.72;;;27.80;99.00;;;;;;5081463;28;20390;-85
2022/03/23 00:26:16;;;;;;;11.90;4.30;;;27.90;99.00;;;;;;5073355;28;20381;-84
2022/03/23 00:28:43;;;;;;;11.57;4.60;;;28.10;98.80;;;;;;5046853;28;20433;-86
2022/03/23 00:31:10;;;;;;;11.57;4.40;;;28.50;98.10;;;;;;5080446;28;20384;-88
2022/03/23 00:33:37;;;;;;;10.13;4.47;;;28.70;95.80;;;;;;5094479;28;20400;-85
2022/03/23 00:36:06;;;;;;;12.20;4.47;;;28.70;95.10;;;;;;5094161;28;20514;-85
2022/03/23 00:38:34;;;;;;;11.07;4.50;;;28.40;96.80;;;;;;5089685;28;20394;-88
2022/03/23 00:41:03;;;;;;;13.40;4.82;;;28.50;96.90;;;;;;5076043;28;20435;-85
2022/03/23 00:43:30;;;;;;;10.80;4.30;;;28.20;95.50;;;;;;5076413;28;20393;-89
2022/03/23 00:45:57;;;;;;;11.80;4.30;;;28.20;96.50;;;;;;5075790;28;20478;-86
2022/03/23 00:48:24;;;;;;;12.63;4.10;;;28.30;96.90;;;;;;5087082;28;20400;-85
2022/03/23 00:50:57;;;;;;;13.15;4.25;;;28.50;96.40;;;;;;5102730;28;20449;-82
2022/03/23 00:53:34;;;;;;;13.73;4.30;;;28.60;96.10;;;;;;5104156;28;20364;-81
2022/03/23 00:56:03;;;;;;;11.32;4.32;;;28.70;96.10;;;;;;5100856;28;20756;-84
2022/03/23 00:58:31;;;;;;;13.18;4.43;;;28.90;94.40;;;;;;5051118;28;20847;-87
2022/03/23 01:01:00;;;;;;;15.20;4.10;;;28.90;96.40;;;;;;5101087;28;20507;-88
2022/03/23 01:03:35;;;;;;;10.55;4.03;;;29.00;96.50;;;;;;5086258;28;20876;-90
2022/03/23 01:06:05;;;;;;;11.48;3.78;;;28.80;97.00;;;;;;5101330;28;21045;-90
2022/03/23 01:08:32;;;;;;;10.57;3.90;;;28.90;96.70;;;;;;5102748;28;20847;-82
2022/03/23 01:11:07;;;;;;;13.17;3.87;;;29.10;96.50;;;;;;5043551;28;20451;-88
2022/03/23 01:13:43;;;;;;;11.85;4.20;;;29.20;95.70;;;;;;5038611;28;20381;-84
2022/03/23 01:16:12;;;;;;;11.50;4.20;;;29.10;95.00;;;;;;5054128;28;20396;-87
2022/03/23 01:18:42;;;;;;;9.45;3.50;;;29.00;95.20;;;;;;5059478;28;20399;-83
2022/03/23 01:21:09;;;;;;;12.20;3.88;;;28.70;96.10;;;;;;5060014;28;20379;-86
2022/03/23 01:23:40;;;;;;;12.93;4.10;;;28.50;96.40;;;;;;5057013;28;20384;-84
2022/03/23 01:26:11;;;;;;;10.98;4.05;;;28.30;96.60;;;;;;5042795;28;20364;-92
2022/03/23 01:28:40;;;;;;;11.75;3.72;;;28.20;96.70;;;;;;5047571;28;20364;-92
2022/03/23 01:31:08;;;;;;;12.68;3.80;;;28.00;96.70;;;;;;5062859;28;20395;-82
2022/03/23 01:33:38;;;;;;;13.25;3.90;;;27.80;97.00;;;;;;5069681;28;20362;-87
2022/03/23 01:36:08;;;;;;;11.63;3.70;;;27.60;96.60;;;;;;5049385;28;20378;-82
2022/03/23 01:38:37;;;;;;;12.57;3.95;;;27.40;97.40;;;;;;5046767;28;20477;-89
2022/03/23 01:41:04;;;;;;;10.57;3.70;;;27.40;97.70;;;;;;5076984;28;20791;-88
2022/03/23 01:43:33;;;;;;;11.23;3.80;;;27.50;97.80;;;;;;5078757;28;20379;-88
2022/03/23 01:46:01;;;;;;;14.27;3.60;;;27.60;97.60;;;;;;5074616;28;20390;-92
2022/03/23 01:48:28;;;;;;;11.98;3.70;;;27.80;97.50;;;;;;5084111;28;20875;-90
2022/03/23 01:50:55;;;;;;;10.02;3.22;;;27.80;97.40;;;;;;5092901;28;20813;-86
2022/03/23 01:53:22;;;;;;;11.68;3.40;;;28.20;97.10;;;;;;5092778;28;20368;-91
2022/03/23 01:55:50;;;;;;;10.75;3.60;;;28.60;95.00;;;;;;5092459;28;20387;-88
2022/03/23 01:58:22;;;;;;;10.68;3.58;;;28.80;94.30;;;;;;5091663;28;20405;-87
2022/03/23 02:00:49;;;;;;;12.38;3.55;;;29.00;93.40;;;;;;5093342;28;21216;-85
2022/03/23 02:03:16;;;;;;;9.32;3.50;;;28.80;93.00;;;;;;5092620;28;20400;-92
2022/03/23 02:05:43;;;;;;;11.27;3.77;;;28.90;93.30;;;;;;5093317;28;20448;-90
2022/03/23 02:08:11;;;;;;;11.20;3.50;;;28.70;93.10;;;;;;5096841;28;20384;-85
2022/03/23 02:10:39;;;;;;;11.23;3.50;;;28.40;93.50;;;;;;5091500;28;20459;-87
2022/03/23 02:13:06;;;;;;;9.45;3.60;;;28.20;94.00;;;;;;5095269;28;20377;-87
2022/03/23 02:15:33;;;;;;;13.05;3.70;;;28.20;94.10;;;;;;5098934;28;20856;-88
2022/03/23 02:18:01;;;;;;;12.80;3.60;;;28.40;93.70;;;;;;5097851;28;20396;-85
2022/03/23 02:20:30;;;;;;;8.48;3.70;;;28.40;93.10;;;;;;5100961;28;20387;-87
2022/03/23 02:22:57;;;;;;;11.82;4.10;;;28.10;93.90;;;;;;5099902;28;20384;-85
2022/03/23 02:25:28;;;;;;;10.10;3.90;;;27.80;94.40;;;;;;5100073;28;20400;-85
2022/03/23 02:27:56;;;;;;;9.20;3.73;;;27.50;94.70;;;;;;5097680;28;20396;-88
2022/03/23 02:30:23;;;;;;;10.93;3.95;;;27.20;95.50;;;;;;5095917;28;20419;-83
2022/03/23 02:32:50;;;;;;;9.13;3.88;;;26.90;96.30;;;;;;5090717;28;20971;-88
2022/03/23 02:35:18;;;;;;;9.30;3.87;;;26.80;96.80;;;;;;5111472;28;20436;-87
2022/03/23 02:37:45;;;;;;;13.63;3.92;;;26.80;96.90;;;;;;5118883;28;20403;-86
2022/03/23 02:40:13;;;;;;;8.63;3.38;;;27.30;96.20;;;;;;5107201;28;20884;-84
2022/03/23 02:42:40;;;;;;;8.20;3.38;;;28.10;94.70;;;;;;5096830;28;20384;-87
2022/03/23 02:45:12;;;;;;;8.63;3.38;;;28.50;92.30;;;;;;5095013;28;20951;-88
2022/03/23 02:47:41;;;;;;;7.40;3.50;;;28.30;92.30;;;;;;5098262;28;20380;-81
2022/03/23 02:50:08;;;;;;;9.48;3.40;;;28.30;93.10;;;;;;5099721;28;20752;-84
2022/03/23 03:01:51;;;;;;;7.05;3.25;;;28.80;92.10;;;;;;5098819;28;20405;-86
2022/03/23 03:01:54;;;;;;;9.25;3.40;;;29.00;90.00;;;;;;5096772;28;20380;-86
2022/03/23 03:04:23;;;;;;;6.50;2.92;;;29.60;87.50;;;;;;5009151;28;20417;-88
2022/03/23 03:06:50;;;;;;;10.88;3.42;;;31.10;83.00;;;;;;4992455;28;20432;-93
2022/03/23 03:09:19;;;;;;;7.22;3.20;;;32.40;76.60;;;;;;4992295;28;20499;-94
2022/03/23 03:11:47;;;;;;;8.13;3.13;;;33.40;70.30;;;;;;4976424;28;20975;-93
2022/03/23 03:14:14;;;;;;;5.73;2.63;;;33.70;67.70;;;;;;4991169;28;20411;-91
2022/03/23 03:16:41;;;;;;;5.68;2.60;;;34.20;65.50;;;;;;4994652;28;20469;-91
2022/03/23 03:19:10;;;;;;;5.30;2.50;;;33.80;64.40;;;;;;4974924;28;20400;-91
2022/03/23 03:21:37;;;;;;;5.47;2.75;;;33.60;64.80;;;;;;4998515;28;20398;-89
2022/03/23 03:24:05;;;;;;;6.78;2.67;;;33.70;64.10;;;;;;5011500;28;20474;-90
2022/03/23 03:26:32;;;;;;;8.57;2.78;;;33.00;64.30;;;;;;5010905;28;20383;-86
2022/03/23 03:28:59;;;;;;;8.60;2.80;;;32.00;65.00;;;;;;5013903;28;20437;-90
2022/03/23 03:31:26;;;;;;;7.20;2.50;;;30.70;68.00;;;;;;5013649;28;20402;-87
2022/03/23 03:33:53;;;;;;;8.55;2.80;;;29.60;70.20;;;;;;5014448;28;20486;-90
2022/03/23 03:36:20;;;;;;;9.40;2.83;;;28.70;74.20;;;;;;5017316;28;20409;-90
2022/03/23 03:38:47;;;;;;;9.57;2.67;;;28.00;77.60;;;;;;5018566;28;20435;-89
2022/03/23 03:41:14;;;;;;;6.97;2.65;;;27.50;81.80;;;;;;5034898;28;20384;-85
2022/03/23 03:43:42;;;;;;;8.80;2.47;;;27.00;85.40;;;;;;5080498;28;20405;-89
2022/03/23 03:46:10;;;;;;;8.30;2.47;;;26.70;88.30;;;;;;5098574;28;20465;-90
2022/03/23 03:48:39;;;;;;;8.45;2.58;;;26.50;89.50;;;;;;5101444;28;20445;-91
2022/03/23 03:51:06;;;;;;;7.78;2.58;;;26.40;90.50;;;;;;5101596;28;20860;-88
2022/03/23 03:53:34;;;;;;;6.72;2.20;;;26.20;91.00;;;;;;5083757;28;20738;-86
2022/03/23 03:56:01;;;;;;;7.40;2.30;;;26.10;91.50;;;;;;5102350;28;20372;-86
2022/03/23 03:58:31;;;;;;;9.13;2.55;;;26.10;91.70;;;;;;5084649;28;20380;-90
2022/03/23 04:00:58;;;;;;;8.95;2.40;;;26.00;91.60;;;;;;5093505;28;20368;-89
2022/03/23 04:03:28;;;;;;;7.55;2.58;;;26.00;91.90;;;;;;5090766;28;20374;-90
2022/03/23 04:05:55;;;;;;;11.37;2.60;;;25.90;92.30;;;;;;5072958;28;20403;-91
2022/03/23 04:08:22;;;;;;;8.52;2.63;;;25.70;92.50;;;;;;5073697;28;20836;-91
2022/03/23 04:10:49;;;;;;;9.48;2.38;;;25.70;92.20;;;;;;5072070;28;20409;-89
2022/03/23 04:13:17;;;;;;;9.45;2.53;;;25.50;92.70;;;;;;5074808;28;20399;-89
2022/03/23 04:15:45;;;;;;;8.48;2.25;;;25.50;93.40;;;;;;5073694;28;20406;-90
2022/03/23 04:18:11;;;;;;;8.55;2.30;;;25.40;93.20;;;;;;5087761;28;20399;-92
2022/03/23 04:20:40;;;;;;;9.30;2.40;;;25.30;94.00;;;;;;5093688;28;20435;-89
2022/03/23 04:23:07;;;;;;;8.00;2.47;;;25.30;94.30;;;;;;5091251;28;20381;-93
2022/03/23 04:25:34;;;;;;;8.35;2.35;;;25.30;94.50;;;;;;5095677;28;20384;-94
2022/03/23 04:28:01;;;;;;;13.07;2.60;;;25.30;93.90;;;;;;5095762;28;20418;-90
2022/03/23 04:30:32;;;;;;;8.48;2.10;;;25.40;94.40;;;;;;5096239;28;20400;-83
2022/03/23 04:33:00;;;;;;;7.53;2.40;;;25.40;94.10;;;;;;5091453;28;20385;-91
2022/03/23 04:35:28;;;;;;;9.05;2.45;;;25.40;94.00;;;;;;5078519;28;20374;-92
2022/03/23 04:37:55;;;;;;;8.57;2.45;;;25.30;95.00;;;;;;5076912;28;20379;-92
2022/03/23 04:40:22;;;;;;;6.90;2.30;;;25.20;94.80;;;;;;5076329;28;20366;-93
2022/03/23 04:42:50;;;;;;;6.78;2.13;;;25.10;94.90;;;;;;5086221;28;20875;-90
2022/03/23 04:45:18;;;;;;;9.13;2.58;;;25.00;95.40;;;;;;5095123;28;20376;-94
2022/03/23 04:47:45;;;;;;;7.45;2.30;;;24.90;95.20;;;;;;5088589;28;20415;-94
2022/03/23 04:50:13;;;;;;;7.30;2.22;;;24.80;95.30;;;;;;5093851;28;20892;-94
2022/03/23 04:52:42;;;;;;;8.98;2.33;;;24.80;95.60;;;;;;5093296;28;20737;-87
2022/03/23 04:55:10;;;;;;;11.40;2.30;;;24.70;96.70;;;;;;5095424;28;20376;-90
2022/03/23 04:57:37;;;;;;;9.13;2.42;;;24.70;96.90;;;;;;5093198;28;20597;-92
2022/03/23 05:00:10;;;;;;;10.60;2.38;;;24.60;97.50;;;;;;5094892;28;20802;-92
2022/03/23 05:02:38;;;;;;;8.23;2.00;;;24.50;97.60;;;;;;5094549;28;20376;-92
2022/03/23 05:05:08;;;;;;;7.80;2.10;;;24.50;98.10;;;;;;5093715;28;20384;-90
2022/03/23 05:07:35;;;;;;;10.05;2.50;;;24.60;98.20;;;;;;5094253;28;20460;-91
2022/03/23 05:10:03;;;;;;;10.00;2.30;;;24.60;98.40;;;;;;5097916;28;20491;-91
2022/03/23 05:12:30;;;;;;;10.52;2.45;;;24.70;98.00;;;;;;5097027;28;20457;-87
2022/03/23 05:14:57;;;;;;;9.02;2.35;;;24.80;98.00;;;;;;5096415;28;20463;-94
2022/03/23 05:17:24;;;;;;;7.80;2.25;;;24.80;98.20;;;;;;5096490;28;20380;-93
2022/03/23 05:19:51;;;;;;;8.27;2.00;;;24.80;97.80;;;;;;5096692;28;20419;-93
2022/03/23 05:22:18;;;;;;;8.60;2.25;;;24.80;97.50;;;;;;5097073;28;20372;-92
2022/03/23 05:24:52;;;;;;;7.87;2.10;;;25.00;97.30;;;;;;5097960;28;20406;-92
2022/03/23 05:27:20;;;;;;;8.50;2.13;;;25.10;97.10;;;;;;5104907;28;20840;-90
2022/03/23 05:29:52;;;;;;;8.57;2.28;;;25.30;96.50;;;;;;5102768;28;20404;-79
2022/03/23 05:32:44;;;;;;;8.93;2.50;;;25.90;96.40;;;;;;5111062;28;20365;-88
2022/03/23 05:35:17;;;;;;;9.60;2.30;;;26.60;96.50;;;;;;5088377;28;20384;-95
2022/03/23 05:38:04;;;;;;;7.93;2.17;;;24.90;96.90;;;;;;5088383;28;20960;-81
2022/03/23 05:40:31;;;;;;;12.67;2.37;;;24.70;97.00;;;;;;5085076;28;20377;-91
2022/03/23 05:42:58;;;;;;;7.65;2.00;;;24.50;97.60;;;;;;5085645;28;20378;-82
2022/03/23 05:45:29;;;;;;;10.35;2.35;;;24.40;98.20;;;;;;5086420;28;20370;-92
2022/03/23 05:48:05;;;;;;;7.78;2.45;;;24.30;98.90;;;;;;5071308;28;20406;-95
2022/03/23 05:51:04;;;;;;;11.93;2.60;;;24.00;99.60;;;;;;5069128;28;20413;-84
2022/03/23 05:56:21;;;;;;;13.33;2.40;;;23.70;99.90;;;;;;5073650;28;20426;-96
2022/03/23 05:58:49;;;;;;;8.83;2.30;;;23.50;99.90;;;;;;5066975;28;20907;-88
2022/03/23 06:01:25;;;;;;;8.45;2.00;;;23.30;99.90;;;;;;5069168;28;20387;-89
2022/03/23 06:04:23;;;;;;;9.43;2.40;;;23.30;99.90;;;;;;5075920;28;20885;-92
2022/03/23 06:06:52;;;;;;;8.95;2.10;;;23.20;99.90;;;;;;5054057;28;20390;-90
2022/03/23 06:09:21;;;;;;;11.52;2.20;;;23.20;99.90;;;;;;5077180;28;20382;-93
2022/03/23 06:11:48;;;;;;;11.55;2.33;;;23.20;99.90;;;;;;5078526;28;20417;-93
2022/03/23 06:14:15;;;;;;;11.10;2.50;;;23.10;99.90;;;;;;5079078;28;20429;-95
2022/03/23 06:16:44;;;;;;;11.30;2.53;;;23.10;99.90;;;;;;5078776;28;20771;-93
2022/03/23 06:19:13;;;;;;;11.88;2.53;;;23.00;99.90;;;;;;5080114;28;20396;-93
2022/03/23 06:21:41;;;;;;;13.30;2.60;;;23.10;99.90;;;;;;5082682;28;20374;-92
2022/03/23 06:24:08;;;;;;;13.73;2.42;;;23.10;99.90;;;;;;5082521;28;20385;-92
2022/03/23 06:26:35;;;;;;;8.55;2.10;;;23.00;99.90;;;;;;5079978;28;20378;-92
2022/03/23 06:29:05;;;;;;;12.38;2.35;;;22.90;99.90;;;;;;5075365;28;20397;-86
2022/03/23 06:31:31;;;;;;;12.27;2.33;;;22.90;99.90;;;;;;5074503;28;20455;-85
2022/03/23 06:33:59;;;;;;;11.90;2.40;;;22.80;99.90;;;;;;5073797;28;20823;-83
2022/03/23 06:36:26;;;;;;;10.73;2.30;;;22.80;99.90;;;;;;5057715;28;20382;-90
2022/03/23 06:38:53;;;;;;;11.85;2.47;;;22.70;99.90;;;;;;5088445;28;20746;-85
2022/03/23 06:41:24;;;;;;;10.15;2.35;;;22.70;99.90;;;;;;5099562;28;20386;-82
2022/03/23 06:43:51;;;;;;;13.25;2.42;;;22.60;99.90;;;;;;5099416;28;20432;-86
2022/03/23 06:46:18;;;;;;;12.93;2.70;;;22.60;99.90;;;;;;5099007;28;20504;-87
2022/03/23 06:48:48;;;;;;;14.20;2.60;;;22.50;99.90;;;;;;5099172;28;20395;-82
2022/03/23 06:51:38;;;;;;;11.45;2.55;;;22.50;99.90;;;;;;5103501;28;20392;-85
2022/03/23 06:54:29;;;;;;;11.52;2.40;;;22.50;99.90;;;;;;5106781;28;20380;-82
2022/03/23 06:56:59;;;;;;;9.68;2.45;;;22.40;99.90;;;;;;5093624;28;20447;-86
2022/03/23 06:59:26;;;;;;;12.40;2.53;;;22.40;99.90;;;;;;5108627;28;20372;-82
2022/03/23 07:01:53;;;;;;;15.00;2.77;;;22.30;99.90;;;;;;5109141;28;20412;-85
2022/03/23 07:04:24;;;;;;;12.33;2.47;;;22.30;99.90;;;;;;5108628;28;20426;-86
2022/03/23 07:06:54;;;;;;;10.68;2.50;;;22.30;99.90;;;;;;5111406;28;20380;-90
2022/03/23 07:09:34;;;;;;;13.23;2.50;;;22.30;99.90;;;;;;5109369;28;20388;-91
2022/03/23 07:12:08;;;;;;;12.77;2.50;;;22.20;99.90;;;;;;5098980;28;20388;-81
2022/03/23 07:14:40;;;;;;;11.15;2.45;;;22.20;99.90;;;;;;5093700;28;20906;-92
2022/03/23 07:17:07;;;;;;;13.30;2.83;;;22.10;99.90;;;;;;5097632;28;20782;-86
2022/03/23 07:19:35;;;;;;;11.40;2.67;;;22.10;99.90;;;;;;5094826;28;20385;-84
2022/03/23 07:22:02;;;;;;;12.90;2.60;;;22.00;99.90;;;;;;5092564;28;20371;-82
2022/03/23 07:24:29;;;;;;;11.75;2.70;;;22.10;99.90;;;;;;5094461;28;20397;-86
2022/03/23 07:26:56;;;;;;;10.65;2.45;;;22.00;99.90;;;;;;5095345;28;20369;-89
2022/03/23 07:29:23;;;;;;;12.02;2.30;;;22.00;99.90;;;;;;5093329;28;20447;-87
2022/03/23 07:31:50;;;;;;;12.85;2.70;;;22.00;99.90;;;;;;5093097;28;20380;-91
2022/03/23 07:34:19;;;;;;;15.95;2.67;;;21.90;99.90;;;;;;5095594;28;20384;-94
2022/03/23 07:36:48;;;;;;;11.38;2.80;;;21.90;99.90;;;;;;5098670;28;20843;-88
2022/03/23 07:39:20;;;;;;;12.63;2.67;;;21.90;99.90;;;;;;5095861;28;20380;-90
2022/03/23 07:41:53;;;;;;;11.05;2.40;;;21.80;99.90;;;;;;5092909;28;20400;-86
2022/03/23 07:44:21;;;;;;;10.45;2.40;;;21.90;99.90;;;;;;5073663;28;20374;-86
2022/03/23 07:46:48;;;;;;;13.20;2.95;;;21.80;99.90;;;;;;5072141;28;20382;-83
2022/03/23 07:49:16;;;;;;;11.60;2.42;;;21.80;99.90;;;;;;5078358;28;20404;-88
2022/03/23 07:51:43;;;;;;;23.08;7.50;;;21.90;99.90;;;;;;5091486;28;20392;-89
2022/03/23 07:54:13;;;;;;;15.43;3.22;;;21.90;99.90;;;;;;5091057;28;20504;-85
2022/03/23 07:56:40;;;;;;;15.80;3.15;;;21.80;99.90;;;;;;5088496;28;20719;-86
2022/03/23 07:59:07;;;;;;;12.50;3.08;;;21.80;99.90;;;;;;5092318;28;20426;-85
2022/03/23 08:01:34;;;;;;;12.15;2.67;;;21.80;99.90;;;;;;5091608;28;20916;-83
2022/03/23 08:04:02;;;;;;;15.15;3.00;;;21.80;99.90;;;;;;5090981;28;20852;-82
2022/03/23 08:06:29;;;;;;;17.15;4.05;;;21.80;99.90;;;;;;5090603;28;20414;-85
2022/03/23 08:08:56;;;;;;;11.95;2.63;;;21.80;99.90;;;;;;5096784;28;20393;-87
2022/03/23 08:11:23;;;;;;;12.00;2.90;;;21.80;99.90;;;;;;5094573;28;20489;-83
2022/03/23 08:13:50;;;;;;;13.33;2.80;;;21.70;99.90;;;;;;5094034;28;20385;-86
2022/03/23 08:16:18;;;;;;;14.03;2.77;;;21.70;99.90;;;;;;5099940;28;20382;-87
2022/03/23 08:18:45;;;;;;;12.77;2.60;;;21.70;99.90;;;;;;5096473;28;20375;-88
2022/03/23 08:21:12;;;;;;;15.65;2.70;;;21.70;99.90;;;;;;5096247;28;20399;-83
2022/03/23 08:23:40;;;;;;;12.63;2.75;;;21.80;99.90;;;;;;5096895;28;20804;-85
2022/03/23 08:26:13;;;;;;;13.25;2.90;;;21.70;99.90;;;;;;5090149;28;20848;-81
2022/03/23 08:28:42;;;;;;;13.82;2.85;;;21.80;99.90;;;;;;5091132;28;20403;-85
2022/03/23 08:31:10;;;;;;;13.57;2.80;;;21.70;99.90;;;;;;5091073;28;20876;-87
2022/03/23 08:33:38;;;;;;;13.25;2.70;;;21.70;99.90;;;;;;5095314;28;20601;-83
2022/03/23 08:36:07;;;;;;;13.47;3.07;;;21.60;99.90;;;;;;5111388;28;20427;-87
2022/03/23 08:38:35;;;;;;;12.90;3.05;;;21.60;99.90;;;;;;5112340;28;20359;-86
2022/03/23 08:41:03;;;;;;;13.70;3.20;;;21.60;99.90;;;;;;5093035;28;20380;-84
2022/03/23 08:43:30;;;;;;;11.63;2.80;;;21.60;99.90;;;;;;5094486;28;20891;-90
2022/03/23 08:45:59;;;;;;;13.43;2.80;;;21.60;99.90;;;;;;5094589;28;20378;-82
2022/03/23 08:48:27;;;;;;;12.13;3.05;;;21.60;99.90;;;;;;5095016;28;20403;-88
2022/03/23 08:50:54;;;;;;;14.40;3.00;;;21.50;99.90;;;;;;5094594;28;20400;-82
2022/03/23 08:53:23;;;;;;;13.23;3.00;;;21.60;99.90;;;;;;5096029;28;20391;-85
2022/03/23 08:55:51;;;;;;;22.60;3.85;;;21.50;99.90;;;;;;5092681;28;20446;-79
2022/03/23 08:58:18;;;;;;;18.45;3.45;;;21.60;99.90;;;;;;5091360;28;20383;-83
2022/03/23 09:00:46;;;;;;;15.77;2.90;;;21.60;99.90;;;;;;5095870;28;20381;-82
2022/03/23 09:03:13;;;;;;;15.43;3.15;;;21.50;99.90;;;;;;5096394;28;20388;-88
2022/03/23 09:05:42;;;;;;;18.98;3.00;;;21.50;99.90;;;;;;5096714;28;20436;-84
2022/03/23 09:08:09;;;;;;;14.47;3.27;;;21.50;99.90;;;;;;5097870;28;20447;-87
2022/03/23 09:10:38;;;;;;;18.35;3.50;;;21.40;99.90;;;;;;5094142;28;20407;-86
2022/03/23 09:13:05;;;;;;;14.63;3.35;;;21.30;99.90;;;;;;5094518;28;20445;-84
2022/03/23 09:15:32;;;;;;;19.27;3.50;;;21.20;99.90;;;;;;5094600;28;20403;-87
2022/03/23 09:18:01;;;;;;;15.38;3.30;;;21.10;99.90;;;;;;5094637;28;20859;-89
2022/03/23 09:20:28;;;;;;;18.00;3.30;;;21.10;99.90;;;;;;5094957;28;20852;-85
2022/03/23 09:22:57;;;;;;;17.00;3.08;;;21.00;99.90;;;;;;5093858;28;20376;-83
2022/03/23 09:25:24;;;;;;;13.52;3.10;;;21.00;99.90;;;;;;5093909;28;20384;-84
2022/03/23 09:27:52;;;;;;;14.17;3.23;;;21.00;99.90;;;;;;5095505;28;20385;-84
2022/03/23 09:30:20;;;;;;;18.48;3.70;;;20.90;99.90;;;;;;5094956;28;20404;-84
2022/03/23 09:32:48;;;;;;;18.35;3.45;;;20.90;99.90;;;;;;5095434;28;20430;-87
2022/03/23 09:35:17;;;;;;;17.33;3.35;;;20.90;99.90;;;;;;5095117;28;20391;-86
2022/03/23 09:37:50;;;;;;;16.70;3.42;;;20.80;99.90;;;;;;5094920;28;20493;-85
2022/03/23 09:40:20;;;;;;;19.70;3.63;;;20.80;99.90;;;;;;5094429;28;20396;-81
2022/03/23 09:42:48;;;;;;;18.88;3.78;;;20.80;99.90;;;;;;5093807;28;20384;-83
2022/03/23 09:45:29;;;;;;;14.10;3.15;;;20.80;99.90;;;;;;5091161;28;20391;-89
2022/03/23 09:47:56;;;;;;;16.00;3.53;;;20.80;99.90;;;;;;5075703;28;20901;-89
2022/03/23 09:50:30;;;;;;;14.43;3.70;;;20.80;99.90;;;;;;5085774;28;20464;-93
2022/03/23 09:52:58;;;;;;;16.00;3.70;;;20.80;99.90;;;;;;5097291;28;20498;-84
2022/03/23 09:55:25;;;;;;;23.08;4.05;;;20.80;99.90;;;;;;5091488;28;20394;-87
2022/03/23 09:58:03;;;;;;;17.73;3.60;;;20.70;99.90;;;;;;5094727;28;20380;-83
2022/03/23 10:00:42;;;;;;;17.02;3.58;;;20.80;99.90;;;;;;5094309;28;20385;-89
2022/03/23 10:03:16;;;;;;;22.75;4.57;;;20.80;99.90;;;;;;5094768;28;20819;-87
2022/03/23 10:05:52;;;;;;;18.70;3.95;;;20.80;99.90;;;;;;5094227;28;20376;-86
2022/03/23 10:08:55;;;;;;;19.05;3.90;;;20.80;99.90;;;;;;5092523;28;20411;-85
2022/03/23 10:11:55;;;;;;;22.73;4.18;;;20.80;99.90;;;;;;5089002;28;20899;-83
2022/03/23 10:14:34;;;;;;;15.90;4.15;;;20.80;99.90;;;;;;5089043;28;20392;-82
2022/03/23 10:17:21;;;;;;;17.20;3.88;;;20.80;99.90;;;;;;5093815;28;20387;-82
2022/03/23 10:19:49;;;;;;;19.58;3.83;;;20.90;99.90;;;;;;5095344;28;20372;-82
2022/03/23 10:22:18;;;;;;;21.08;3.97;;;20.80;99.90;;;;;;5098052;28;20408;-81
2022/03/23 10:24:46;;;;;;;18.10;3.78;;;20.80;99.90;;;;;;5097502;28;20945;-87
2022/03/23 10:27:22;;;;;;;20.90;4.00;;;20.80;99.90;;;;;;5101176;28;20418;-82
2022/03/23 10:29:53;;;;;;;18.48;3.88;;;20.80;99.90;;;;;;5103410;28;20473;-92
2022/03/23 10:32:21;;;;;;;20.65;4.20;;;20.70;99.90;;;;;;5098076;28;20410;-92
2022/03/23 10:34:55;;;;;;;15.57;3.70;;;20.70;99.90;;;;;;5100845;28;20365;-84
2022/03/23 10:37:43;;;;;;;22.77;4.03;;;20.60;99.90;;;;;;5097017;28;20392;-80
2022/03/23 10:40:13;;;;;;;21.17;4.15;;;20.60;99.90;;;;;;5096756;28;20380;-93
2022/03/23 10:42:43;;;;;;;17.67;4.37;;;20.60;99.90;;;;;;5101176;28;20904;-91
2022/03/23 10:45:17;;;;;;;17.43;3.93;;;20.60;99.90;;;;;;5100454;28;20364;-85
2022/03/23 10:47:46;;;;;;;17.77;3.72;;;20.60;99.90;;;;;;5094361;28;20487;-87
2022/03/23 10:50:21;;;;;;;16.85;3.85;;;20.60;99.90;;;;;;5095245;28;20416;-85
2022/03/23 10:53:08;;;;;;;20.42;3.90;;;20.50;99.90;;;;;;5097113;28;20384;-82
2022/03/23 10:55:47;;;;;;;17.42;3.60;;;20.50;99.90;;;;;;5099525;28;20372;-86
2022/03/23 10:58:14;;;;;;;15.68;3.80;;;20.50;99.90;;;;;;5096825;28;20392;-80
2022/03/23 11:00:42;;;;;;;20.30;4.10;;;20.50;99.90;;;;;;5098880;28;20880;-82
2022/03/23 11:03:10;;;;;;;17.70;3.60;;;20.50;99.90;;;;;;5094383;28;20388;-82
2022/03/23 11:05:43;;;;;;;14.60;3.57;;;20.50;99.90;;;;;;5091601;28;20369;-84
2022/03/23 11:08:13;;;;;;;25.45;3.72;;;20.50;99.90;;;;;;5093091;28;20368;-83
2022/03/23 11:16:24;;;;;;;18.95;3.88;;;20.50;99.90;;;;;;5092305;28;20415;-80
2022/03/23 11:19:11;;;;;;;23.60;4.13;;;20.50;99.90;;;;;;5093490;28;20412;-83
2022/03/23 11:21:58;;;;;;;23.83;4.43;;;20.50;99.90;;;;;;5035058;28;20842;-81
2022/03/23 11:24:27;;;;;;;21.25;4.20;;;20.50;99.90;;;;;;5035870;28;20779;-84
2022/03/23 11:26:58;;;;;;;27.80;4.40;;;20.40;99.90;;;;;;5040693;28;20899;-84
2022/03/23 11:29:25;;;;;;;23.42;4.38;;;20.30;99.90;;;;;;5035276;28;20407;-80
2022/03/23 11:31:53;;;;;;;25.17;4.28;;;20.30;99.90;;;;;;5039365;28;20402;-84
2022/03/23 11:34:23;;;;;;;22.38;4.30;;;20.30;99.90;;;;;;5027386;28;20451;-89
2022/03/23 11:36:53;;;;;;;30.17;4.65;;;20.30;99.90;;;;;;5036339;28;20397;-80
2022/03/23 11:39:23;;;;;;;35.90;5.40;;;20.30;99.90;;;;;;5052648;28;20793;-86
2022/03/23 11:41:53;;;;;;;32.88;5.25;;;20.30;99.90;;;;;;5048461;28;20395;-83
2022/03/23 11:44:21;;;;;;;28.00;4.70;;;20.20;99.90;;;;;;5030733;28;20911;-83
2022/03/23 11:46:50;;;;;;;32.97;5.03;;;20.20;99.90;;;;;;5044369;28;20437;-87
2022/03/23 11:49:20;;;;;;;25.27;4.38;;;20.20;99.90;;;;;;5033108;28;20498;-88
2022/03/23 11:52:23;;;;;;;28.55;4.18;;;20.20;99.90;;;;;;5038930;28;20397;-89
2022/03/23 11:58:01;;;;;;;20.17;3.80;;;20.00;99.90;;;;;;5045040;28;21158;-86
2022/03/23 12:00:36;;;;;;;22.33;4.00;;;19.90;99.90;;;;;;5111697;27;20955;-85
2022/03/23 12:03:03;;;;;;;19.15;3.63;;;19.80;99.90;;;;;;5090393;28;20380;-90
2022/03/23 12:05:33;;;;;;;19.48;4.00;;;19.80;99.90;;;;;;5091863;28;20423;-81
2022/03/23 12:07:59;;;;;;;21.80;3.83;;;19.80;99.90;;;;;;5092553;28;21007;-92
2022/03/23 12:10:32;;;;;;;17.10;3.70;;;19.80;99.90;;;;;;5091882;28;20487;-87
2022/03/23 12:13:19;;;;;;;22.77;4.00;;;19.80;99.90;;;;;;5090969;28;20373;-87
2022/03/23 12:15:57;;;;;;;21.53;4.20;;;19.80;99.90;;;;;;5087197;28;20395;-83
2022/03/23 12:18:41;;;;;;;17.80;3.90;;;19.80;99.90;;;;;;5092177;28;20443;-83
2022/03/23 12:21:12;;;;;;;24.70;4.00;;;19.70;99.90;;;;;;5092442;28;20402;-83
2022/03/23 12:23:48;;;;;;;18.33;3.93;;;19.70;99.90;;;;;;5095105;28;20376;-87
2022/03/23 12:26:27;;;;;;;20.08;3.80;;;19.70;99.90;;;;;;5088365;28;20391;-82
2022/03/23 12:29:03;;;;;;;21.08;4.40;;;19.70;99.90;;;;;;5088324;28;20459;-88
2022/03/23 12:31:48;;;;;;;21.83;4.40;;;19.80;99.90;;;;;;5095401;28;20576;-82
2022/03/23 12:34:26;;;;;;;22.10;3.92;;;19.80;99.90;;;;;;5083919;28;20380;-85
2022/03/23 12:36:59;;;;;;;16.08;3.65;;;19.80;99.90;;;;;;5095531;28;20379;-88
2022/03/23 12:39:30;;;;;;;17.48;3.67;;;19.70;99.90;;;;;;5096757;28;20789;-88
2022/03/23 12:42:16;;;;;;;16.90;3.60;;;19.70;99.90;;;;;;5094777;28;20403;-82
2022/03/23 12:44:47;;;;;;;17.40;3.80;;;19.70;99.90;;;;;;5095105;28;20450;-87
2022/03/23 12:47:20;;;;;;;16.38;3.60;;;19.70;99.90;;;;;;5094335;28;20388;-89
2022/03/23 12:58:28;;;;;;;19.07;3.87;;;19.80;99.90;;;;;;5095332;28;20359;-86
2022/03/23 13:01:13;;;;;;;20.40;4.50;;;19.70;99.90;;;;;;5095386;28;20387;-88
2022/03/23 13:03:43;;;;;;;23.93;5.33;;;19.70;99.90;;;;;;5093990;28;20388;-87
2022/03/23 13:06:15;;;;;;;20.85;4.30;;;19.70;99.90;;;;;;5094470;28;20368;-85
2022/03/23 13:08:50;;;;;;;18.10;4.25;;;19.70;99.90;;;;;;5093220;28;20731;-85
2022/03/23 13:11:30;;;;;;;22.80;4.10;;;19.70;99.90;;;;;;5094861;28;20797;-86
2022/03/23 13:14:01;;;;;;;18.90;4.30;;;19.70;99.90;;;;;;5094139;28;20368;-85
2022/03/23 13:16:36;;;;;;;19.92;4.20;;;19.70;99.90;;;;;;5094523;28;20471;-88
2022/03/23 13:19:05;;;;;;;17.50;3.97;;;19.70;99.90;;;;;;5093816;28;20864;-81
2022/03/23 13:21:33;;;;;;;19.58;3.97;;;19.60;99.90;;;;;;5094085;28;20392;-87